首页
METAR-TAF:

METAR-TAF

机场 :

格尔夫海岸, 阿拉巴马州, 美国

纬度: 30-17-23N, 经度: 087-40-18W, 海拔: 5米

当前天气观测

该预报发布于22分钟前的23:35 UTC
风速5节,风向东北
温度 24°C
湿度 83%
气压 1012 hPa
能見度: 16.1公里
散云层高于1700英尺
多云层高于2500英尺
阴天层高于3600英尺

METAR: KJKA 262335Z AUTO 04005KT 10SM SCT017 BKN025 OVC036 24/21 A2988 RMK AO2 LTG DSNT N AND NE T02410213

时间: 18:57 (23:57 UTC)


TAF: 丢失

超过4000个机场的气象观测和天气预报(METAR&TAF报告)。

可查询的气象台以黄色和红色小点在地图上表示。

将鼠标移到小点上方,可查看气象台名称。

然后点击查看天气观测和预报。

如需切换地图:点击带黑十字的绿色按钮放大地图;点击带横线的绿色按钮缩小地图;或者点击绿色箭头查看邻近地区的地图。


METAR-TAF: